sensor_id;sensor_type;location;lat;lon;timestamp;P1;durP1;ratioP1;P2;durP2;ratioP2
33987;SDS011;37428;53.580;-1.666;2023-02-15T00:00:42;27.67;;;18.77;;
33987;SDS011;37428;53.580;-1.666;2023-02-15T00:03:44;28.15;;;19.17;;
33987;SDS011;37428;53.580;-1.666;2023-02-15T00:06:48;24.33;;;18.85;;
33987;SDS011;37428;53.580;-1.666;2023-02-15T00:09:51;21.00;;;14.68;;
33987;SDS011;37428;53.580;-1.666;2023-02-15T00:12:53;28.67;;;21.20;;
33987;SDS011;37428;53.580;-1.666;2023-02-15T00:16:01;37.42;;;24.02;;
33987;SDS011;37428;53.580;-1.666;2023-02-15T00:19:04;38.72;;;25.08;;
33987;SDS011;37428;53.580;-1.666;2023-02-15T00:22:06;38.35;;;24.67;;
33987;SDS011;37428;53.580;-1.666;2023-02-15T00:28:11;33.05;;;23.63;;
33987;SDS011;37428;53.580;-1.666;2023-02-15T00:31:14;39.17;;;24.40;;
33987;SDS011;37428;53.580;-1.666;2023-02-15T00:34:17;41.88;;;24.42;;
33987;SDS011;37428;53.580;-1.666;2023-02-15T00:37:20;40.50;;;24.75;;
33987;SDS011;37428;53.580;-1.666;2023-02-15T00:40:22;32.70;;;23.92;;
33987;SDS011;37428;53.580;-1.666;2023-02-15T00:43:24;34.53;;;24.98;;
33987;SDS011;37428;53.580;-1.666;2023-02-15T00:46:31;32.03;;;23.17;;
33987;SDS011;37428;53.580;-1.666;2023-02-15T00:49:33;34.85;;;24.90;;
33987;SDS011;37428;53.580;-1.666;2023-02-15T00:52:36;33.30;;;24.25;;
33987;SDS011;37428;53.580;-1.666;2023-02-15T00:55:38;29.75;;;22.42;;
33987;SDS011;37428;53.580;-1.666;2023-02-15T01:01:44;35.92;;;25.52;;
33987;SDS011;37428;53.580;-1.666;2023-02-15T01:04:46;33.97;;;23.35;;
33987;SDS011;37428;53.580;-1.666;2023-02-15T01:07:48;29.48;;;22.98;;
33987;SDS011;37428;53.580;-1.666;2023-02-15T01:10:52;32.45;;;23.52;;
33987;SDS011;37428;53.580;-1.666;2023-02-15T01:13:55;39.10;;;24.75;;
33987;SDS011;37428;53.580;-1.666;2023-02-15T01:17:00;39.78;;;27.75;;
33987;SDS011;37428;53.580;-1.666;2023-02-15T01:20:03;97.53;;;49.80;;
33987;SDS011;37428;53.580;-1.666;2023-02-15T01:23:07;93.45;;;47.25;;
33987;SDS011;37428;53.580;-1.666;2023-02-15T01:26:10;117.32;;;54.22;;
33987;SDS011;37428;53.580;-1.666;2023-02-15T01:32:15;93.10;;;45.20;;
33987;SDS011;37428;53.580;-1.666;2023-02-15T01:35:17;46.92;;;27.50;;
33987;SDS011;37428;53.580;-1.666;2023-02-15T01:38:19;86.43;;;44.00;;
33987;SDS011;37428;53.580;-1.666;2023-02-15T01:41:21;113.63;;;53.00;;
33987;SDS011;37428;53.580;-1.666;2023-02-15T01:47:54;32.58;;;20.80;;
33987;SDS011;37428;53.580;-1.666;2023-02-15T01:51:00;42.72;;;23.27;;
33987;SDS011;37428;53.580;-1.666;2023-02-15T01:54:05;56.00;;;29.70;;
33987;SDS011;37428;53.580;-1.666;2023-02-15T01:57:13;61.67;;;34.13;;
33987;SDS011;37428;53.580;-1.666;2023-02-15T02:00:20;169.63;;;78.30;;
33987;SDS011;37428;53.580;-1.666;2023-02-15T02:06:30;83.63;;;41.78;;
33987;SDS011;37428;53.580;-1.666;2023-02-15T02:09:35;63.92;;;30.20;;
33987;SDS011;37428;53.580;-1.666;2023-02-15T02:12:37;69.88;;;36.85;;
33987;SDS011;37428;53.580;-1.666;2023-02-15T02:15:43;125.90;;;62.65;;
33987;SDS011;37428;53.580;-1.666;2023-02-15T02:18:57;82.95;;;44.45;;
33987;SDS011;37428;53.580;-1.666;2023-02-15T02:22:18;33.03;;;20.17;;
33987;SDS011;37428;53.580;-1.666;2023-02-15T02:25:46;67.28;;;34.80;;
33987;SDS011;37428;53.580;-1.666;2023-02-15T02:29:19;102.63;;;53.03;;
33987;SDS011;37428;53.580;-1.666;2023-02-15T02:36:08;50.42;;;27.92;;
33987;SDS011;37428;53.580;-1.666;2023-02-15T02:39:23;26.70;;;17.27;;
33987;SDS011;37428;53.580;-1.666;2023-02-15T02:42:34;25.27;;;16.33;;
33987;SDS011;37428;53.580;-1.666;2023-02-15T02:45:40;32.55;;;20.30;;
33987;SDS011;37428;53.580;-1.666;2023-02-15T02:48:51;37.58;;;22.00;;
33987;SDS011;37428;53.580;-1.666;2023-02-15T02:51:57;27.45;;;17.00;;
33987;SDS011;37428;53.580;-1.666;2023-02-15T02:55:00;27.58;;;15.38;;
33987;SDS011;37428;53.580;-1.666;2023-02-15T02:58:05;27.25;;;17.15;;
33987;SDS011;37428;53.580;-1.666;2023-02-15T03:01:11;16.30;;;11.95;;
33987;SDS011;37428;53.580;-1.666;2023-02-15T03:04:18;21.33;;;11.68;;
33987;SDS011;37428;53.580;-1.666;2023-02-15T03:07:24;18.77;;;11.75;;
33987;SDS011;37428;53.580;-1.666;2023-02-15T03:10:28;17.48;;;11.80;;
33987;SDS011;37428;53.580;-1.666;2023-02-15T03:13:31;17.45;;;12.77;;
33987;SDS011;37428;53.580;-1.666;2023-02-15T03:16:34;18.48;;;13.02;;
33987;SDS011;37428;53.580;-1.666;2023-02-15T03:19:38;20.90;;;12.48;;
33987;SDS011;37428;53.580;-1.666;2023-02-15T03:22:42;18.13;;;12.05;;
33987;SDS011;37428;53.580;-1.666;2023-02-15T03:25:50;20.00;;;14.02;;
33987;SDS011;37428;53.580;-1.666;2023-02-15T03:28:57;20.38;;;13.15;;
33987;SDS011;37428;53.580;-1.666;2023-02-15T03:32:02;19.58;;;12.93;;
33987;SDS011;37428;53.580;-1.666;2023-02-15T03:35:10;20.83;;;11.93;;
33987;SDS011;37428;53.580;-1.666;2023-02-15T03:38:17;20.42;;;14.07;;
33987;SDS011;37428;53.580;-1.666;2023-02-15T03:41:24;25.30;;;14.77;;
33987;SDS011;37428;53.580;-1.666;2023-02-15T03:44:31;23.02;;;14.45;;
33987;SDS011;37428;53.580;-1.666;2023-02-15T03:47:36;21.25;;;12.35;;
33987;SDS011;37428;53.580;-1.666;2023-02-15T03:50:43;19.48;;;13.63;;
33987;SDS011;37428;53.580;-1.666;2023-02-15T03:54:05;21.58;;;13.77;;
33987;SDS011;37428;53.580;-1.666;2023-02-15T03:57:10;20.27;;;14.15;;
33987;SDS011;37428;53.580;-1.666;2023-02-15T04:00:32;20.90;;;14.17;;
33987;SDS011;37428;53.580;-1.666;2023-02-15T04:03:59;24.33;;;14.70;;
33987;SDS011;37428;53.580;-1.666;2023-02-15T04:07:07;28.25;;;14.95;;
33987;SDS011;37428;53.580;-1.666;2023-02-15T04:10:12;23.40;;;15.90;;
33987;SDS011;37428;53.580;-1.666;2023-02-15T04:13:32;23.65;;;16.30;;
33987;SDS011;37428;53.580;-1.666;2023-02-15T04:16:34;29.75;;;19.70;;
33987;SDS011;37428;53.580;-1.666;2023-02-15T04:19:35;30.70;;;16.60;;
33987;SDS011;37428;53.580;-1.666;2023-02-15T04:22:56;29.65;;;16.63;;
33987;SDS011;37428;53.580;-1.666;2023-02-15T04:26:15;29.90;;;17.33;;
33987;SDS011;37428;53.580;-1.666;2023-02-15T04:29:17;27.27;;;17.20;;
33987;SDS011;37428;53.580;-1.666;2023-02-15T04:32:19;30.23;;;17.73;;
33987;SDS011;37428;53.580;-1.666;2023-02-15T04:35:21;29.05;;;16.88;;
33987;SDS011;37428;53.580;-1.666;2023-02-15T04:38:25;25.58;;;16.35;;
33987;SDS011;37428;53.580;-1.666;2023-02-15T04:41:27;26.35;;;17.83;;
33987;SDS011;37428;53.580;-1.666;2023-02-15T04:44:31;27.23;;;16.95;;
33987;SDS011;37428;53.580;-1.666;2023-02-15T04:47:33;27.70;;;17.75;;
33987;SDS011;37428;53.580;-1.666;2023-02-15T04:50:36;27.08;;;17.85;;
33987;SDS011;37428;53.580;-1.666;2023-02-15T04:53:40;29.52;;;18.20;;
33987;SDS011;37428;53.580;-1.666;2023-02-15T04:56:42;28.50;;;17.90;;
33987;SDS011;37428;53.580;-1.666;2023-02-15T04:59:46;26.83;;;18.90;;
33987;SDS011;37428;53.580;-1.666;2023-02-15T05:02:48;29.50;;;19.60;;
33987;SDS011;37428;53.580;-1.666;2023-02-15T05:05:52;28.45;;;18.58;;
33987;SDS011;37428;53.580;-1.666;2023-02-15T05:08:55;33.22;;;20.02;;
33987;SDS011;37428;53.580;-1.666;2023-02-15T05:11:59;27.98;;;18.73;;
33987;SDS011;37428;53.580;-1.666;2023-02-15T05:15:01;25.13;;;18.83;;
33987;SDS011;37428;53.580;-1.666;2023-02-15T05:18:03;31.63;;;20.75;;
33987;SDS011;37428;53.580;-1.666;2023-02-15T05:21:06;33.17;;;20.42;;
33987;SDS011;37428;53.580;-1.666;2023-02-15T05:24:10;33.70;;;18.95;;
33987;SDS011;37428;53.580;-1.666;2023-02-15T05:27:44;33.17;;;19.88;;
33987;SDS011;37428;53.580;-1.666;2023-02-15T05:31:04;36.38;;;20.00;;
33987;SDS011;37428;53.580;-1.666;2023-02-15T05:34:10;35.15;;;20.42;;
33987;SDS011;37428;53.580;-1.666;2023-02-15T05:37:12;31.55;;;20.42;;
33987;SDS011;37428;53.580;-1.666;2023-02-15T05:40:16;34.90;;;18.10;;
33987;SDS011;37428;53.580;-1.666;2023-02-15T05:43:18;34.63;;;20.88;;
33987;SDS011;37428;53.580;-1.666;2023-02-15T05:46:20;35.78;;;21.98;;
33987;SDS011;37428;53.580;-1.666;2023-02-15T05:49:25;31.67;;;18.67;;
33987;SDS011;37428;53.580;-1.666;2023-02-15T05:52:27;31.83;;;19.38;;
33987;SDS011;37428;53.580;-1.666;2023-02-15T05:55:30;35.72;;;20.98;;
33987;SDS011;37428;53.580;-1.666;2023-02-15T05:58:33;32.30;;;21.23;;
33987;SDS011;37428;53.580;-1.666;2023-02-15T06:01:36;35.47;;;20.60;;
33987;SDS011;37428;53.580;-1.666;2023-02-15T06:04:38;38.33;;;22.05;;
33987;SDS011;37428;53.580;-1.666;2023-02-15T06:07:42;36.42;;;22.40;;
33987;SDS011;37428;53.580;-1.666;2023-02-15T06:10:46;41.92;;;23.77;;
33987;SDS011;37428;53.580;-1.666;2023-02-15T06:13:49;35.80;;;21.00;;
33987;SDS011;37428;53.580;-1.666;2023-02-15T06:19:53;35.70;;;21.90;;
33987;SDS011;37428;53.580;-1.666;2023-02-15T06:22:57;41.45;;;24.52;;
33987;SDS011;37428;53.580;-1.666;2023-02-15T06:26:04;38.15;;;23.90;;
33987;SDS011;37428;53.580;-1.666;2023-02-15T06:29:06;38.47;;;23.30;;
33987;SDS011;37428;53.580;-1.666;2023-02-15T06:32:09;31.23;;;20.75;;
33987;SDS011;37428;53.580;-1.666;2023-02-15T06:35:13;32.05;;;20.75;;
33987;SDS011;37428;53.580;-1.666;2023-02-15T06:38:16;22.83;;;15.45;;
33987;SDS011;37428;53.580;-1.666;2023-02-15T06:44:22;28.75;;;16.02;;
33987;SDS011;37428;53.580;-1.666;2023-02-15T06:47:25;30.02;;;19.98;;
33987;SDS011;37428;53.580;-1.666;2023-02-15T06:50:33;33.03;;;20.38;;
33987;SDS011;37428;53.580;-1.666;2023-02-15T06:56:44;26.10;;;17.83;;
33987;SDS011;37428;53.580;-1.666;2023-02-15T06:59:46;22.60;;;14.35;;
33987;SDS011;37428;53.580;-1.666;2023-02-15T07:02:52;19.75;;;14.18;;
33987;SDS011;37428;53.580;-1.666;2023-02-15T07:05:58;19.98;;;12.93;;
33987;SDS011;37428;53.580;-1.666;2023-02-15T07:09:03;19.20;;;12.88;;
33987;SDS011;37428;53.580;-1.666;2023-02-15T07:12:06;15.55;;;11.90;;
33987;SDS011;37428;53.580;-1.666;2023-02-15T07:15:26;15.20;;;11.98;;
33987;SDS011;37428;53.580;-1.666;2023-02-15T07:18:28;19.42;;;12.85;;
33987;SDS011;37428;53.580;-1.666;2023-02-15T07:21:30;20.40;;;12.93;;
33987;SDS011;37428;53.580;-1.666;2023-02-15T07:24:32;17.35;;;13.10;;
33987;SDS011;37428;53.580;-1.666;2023-02-15T07:27:36;19.70;;;13.27;;
33987;SDS011;37428;53.580;-1.666;2023-02-15T07:30:39;21.27;;;12.30;;
33987;SDS011;37428;53.580;-1.666;2023-02-15T07:33:41;19.40;;;12.65;;
33987;SDS011;37428;53.580;-1.666;2023-02-15T07:36:43;18.70;;;12.55;;
33987;SDS011;37428;53.580;-1.666;2023-02-15T07:39:45;23.95;;;13.57;;
33987;SDS011;37428;53.580;-1.666;2023-02-15T07:42:49;16.55;;;12.57;;
33987;SDS011;37428;53.580;-1.666;2023-02-15T07:45:53;20.20;;;13.23;;
33987;SDS011;37428;53.580;-1.666;2023-02-15T07:48:55;18.92;;;12.90;;
33987;SDS011;37428;53.580;-1.666;2023-02-15T07:51:57;19.30;;;12.75;;
33987;SDS011;37428;53.580;-1.666;2023-02-15T07:55:01;22.55;;;14.07;;
33987;SDS011;37428;53.580;-1.666;2023-02-15T07:58:05;19.98;;;12.80;;
33987;SDS011;37428;53.580;-1.666;2023-02-15T08:01:07;17.52;;;13.70;;
33987;SDS011;37428;53.580;-1.666;2023-02-15T08:04:11;17.88;;;12.23;;
33987;SDS011;37428;53.580;-1.666;2023-02-15T08:07:13;14.35;;;11.32;;
33987;SDS011;37428;53.580;-1.666;2023-02-15T08:10:15;17.25;;;12.90;;
33987;SDS011;37428;53.580;-1.666;2023-02-15T08:13:39;18.77;;;13.02;;
33987;SDS011;37428;53.580;-1.666;2023-02-15T08:16:53;20.77;;;12.63;;
33987;SDS011;37428;53.580;-1.666;2023-02-15T08:19:56;17.80;;;13.90;;
33987;SDS011;37428;53.580;-1.666;2023-02-15T08:22:58;23.02;;;14.40;;
33987;SDS011;37428;53.580;-1.666;2023-02-15T08:26:00;21.05;;;15.27;;
33987;SDS011;37428;53.580;-1.666;2023-02-15T08:29:08;19.70;;;14.15;;
33987;SDS011;37428;53.580;-1.666;2023-02-15T08:32:12;23.33;;;15.02;;
33987;SDS011;37428;53.580;-1.666;2023-02-15T08:35:14;22.15;;;15.50;;
33987;SDS011;37428;53.580;-1.666;2023-02-15T08:38:17;21.60;;;16.10;;
33987;SDS011;37428;53.580;-1.666;2023-02-15T08:41:20;18.48;;;14.60;;
33987;SDS011;37428;53.580;-1.666;2023-02-15T08:44:25;20.30;;;12.90;;
33987;SDS011;37428;53.580;-1.666;2023-02-15T08:47:33;20.83;;;15.27;;
33987;SDS011;37428;53.580;-1.666;2023-02-15T08:50:35;22.08;;;15.13;;
33987;SDS011;37428;53.580;-1.666;2023-02-15T08:53:38;22.98;;;14.00;;
33987;SDS011;37428;53.580;-1.666;2023-02-15T08:56:41;21.38;;;13.85;;
33987;SDS011;37428;53.580;-1.666;2023-02-15T08:59:45;19.00;;;12.60;;
33987;SDS011;37428;53.580;-1.666;2023-02-15T09:02:49;22.90;;;15.48;;
33987;SDS011;37428;53.580;-1.666;2023-02-15T09:05:56;20.75;;;14.30;;
33987;SDS011;37428;53.580;-1.666;2023-02-15T09:09:01;24.02;;;15.43;;
33987;SDS011;37428;53.580;-1.666;2023-02-15T09:12:03;21.50;;;14.45;;
33987;SDS011;37428;53.580;-1.666;2023-02-15T09:15:08;19.02;;;12.77;;
33987;SDS011;37428;53.580;-1.666;2023-02-15T09:18:11;17.63;;;13.20;;
33987;SDS011;37428;53.580;-1.666;2023-02-15T09:21:18;21.70;;;12.48;;
33987;SDS011;37428;53.580;-1.666;2023-02-15T09:24:21;14.43;;;10.75;;
33987;SDS011;37428;53.580;-1.666;2023-02-15T09:27:24;15.98;;;11.65;;
33987;SDS011;37428;53.580;-1.666;2023-02-15T09:30:28;14.68;;;11.02;;
33987;SDS011;37428;53.580;-1.666;2023-02-15T09:33:32;16.60;;;9.90;;
33987;SDS011;37428;53.580;-1.666;2023-02-15T09:36:35;15.25;;;7.65;;
33987;SDS011;37428;53.580;-1.666;2023-02-15T09:39:39;14.35;;;8.13;;
33987;SDS011;37428;53.580;-1.666;2023-02-15T09:42:50;14.45;;;7.95;;
33987;SDS011;37428;53.580;-1.666;2023-02-15T09:46:16;11.80;;;8.13;;
33987;SDS011;37428;53.580;-1.666;2023-02-15T09:49:32;13.05;;;8.23;;
33987;SDS011;37428;53.580;-1.666;2023-02-15T09:52:48;15.00;;;9.10;;
33987;SDS011;37428;53.580;-1.666;2023-02-15T09:56:00;14.88;;;9.55;;
33987;SDS011;37428;53.580;-1.666;2023-02-15T09:59:10;12.55;;;8.90;;
33987;SDS011;37428;53.580;-1.666;2023-02-15T10:02:24;17.20;;;9.80;;
33987;SDS011;37428;53.580;-1.666;2023-02-15T10:05:39;16.67;;;8.27;;
33987;SDS011;37428;53.580;-1.666;2023-02-15T10:08:55;13.18;;;8.40;;
33987;SDS011;37428;53.580;-1.666;2023-02-15T10:12:11;14.23;;;8.73;;
33987;SDS011;37428;53.580;-1.666;2023-02-15T10:15:27;12.63;;;9.10;;
33987;SDS011;37428;53.580;-1.666;2023-02-15T10:18:55;18.27;;;11.57;;
33987;SDS011;37428;53.580;-1.666;2023-02-15T10:22:06;15.45;;;8.98;;
33987;SDS011;37428;53.580;-1.666;2023-02-15T10:25:25;14.73;;;9.27;;
33987;SDS011;37428;53.580;-1.666;2023-02-15T10:28:38;17.95;;;9.50;;
33987;SDS011;37428;53.580;-1.666;2023-02-15T10:31:46;17.33;;;9.98;;
33987;SDS011;37428;53.580;-1.666;2023-02-15T10:34:52;13.45;;;9.18;;
33987;SDS011;37428;53.580;-1.666;2023-02-15T10:38:15;15.35;;;8.98;;
33987;SDS011;37428;53.580;-1.666;2023-02-15T10:41:28;24.00;;;8.35;;
33987;SDS011;37428;53.580;-1.666;2023-02-15T10:44:46;15.38;;;9.40;;
33987;SDS011;37428;53.580;-1.666;2023-02-15T10:48:12;15.63;;;8.10;;
33987;SDS011;37428;53.580;-1.666;2023-02-15T10:51:26;21.73;;;8.38;;
33987;SDS011;37428;53.580;-1.666;2023-02-15T10:54:39;15.85;;;7.43;;
33987;SDS011;37428;53.580;-1.666;2023-02-15T10:57:48;19.45;;;8.45;;
33987;SDS011;37428;53.580;-1.666;2023-02-15T11:01:02;13.60;;;8.95;;
33987;SDS011;37428;53.580;-1.666;2023-02-15T11:04:24;18.95;;;8.73;;
33987;SDS011;37428;53.580;-1.666;2023-02-15T11:07:44;13.98;;;9.30;;
33987;SDS011;37428;53.580;-1.666;2023-02-15T11:10:49;18.85;;;10.05;;
33987;SDS011;37428;53.580;-1.666;2023-02-15T11:13:57;22.50;;;10.93;;
33987;SDS011;37428;53.580;-1.666;2023-02-15T11:17:02;18.00;;;10.65;;
33987;SDS011;37428;53.580;-1.666;2023-02-15T11:20:15;18.73;;;9.50;;
33987;SDS011;37428;53.580;-1.666;2023-02-15T11:23:24;19.98;;;10.60;;
33987;SDS011;37428;53.580;-1.666;2023-02-15T11:26:28;15.68;;;9.07;;
33987;SDS011;37428;53.580;-1.666;2023-02-15T11:29:36;20.58;;;10.05;;
33987;SDS011;37428;53.580;-1.666;2023-02-15T11:32:41;20.92;;;11.13;;
33987;SDS011;37428;53.580;-1.666;2023-02-15T11:35:48;21.95;;;12.30;;
33987;SDS011;37428;53.580;-1.666;2023-02-15T11:38:56;19.40;;;10.98;;
33987;SDS011;37428;53.580;-1.666;2023-02-15T11:42:04;20.20;;;11.07;;
33987;SDS011;37428;53.580;-1.666;2023-02-15T11:45:17;17.38;;;9.70;;
33987;SDS011;37428;53.580;-1.666;2023-02-15T11:48:24;20.00;;;10.52;;
33987;SDS011;37428;53.580;-1.666;2023-02-15T11:51:27;28.38;;;14.57;;
33987;SDS011;37428;53.580;-1.666;2023-02-15T11:54:32;30.08;;;14.52;;
33987;SDS011;37428;53.580;-1.666;2023-02-15T11:57:37;24.27;;;14.65;;
33987;SDS011;37428;53.580;-1.666;2023-02-15T12:00:43;26.05;;;13.93;;
33987;SDS011;37428;53.580;-1.666;2023-02-15T12:03:47;23.20;;;12.52;;
33987;SDS011;37428;53.580;-1.666;2023-02-15T12:06:53;17.23;;;8.35;;
33987;SDS011;37428;53.580;-1.666;2023-02-15T12:10:02;15.88;;;8.60;;
33987;SDS011;37428;53.580;-1.666;2023-02-15T12:13:12;16.77;;;9.30;;
33987;SDS011;37428;53.580;-1.666;2023-02-15T12:16:16;11.90;;;8.82;;
33987;SDS011;37428;53.580;-1.666;2023-02-15T12:19:26;16.55;;;9.77;;
33987;SDS011;37428;53.580;-1.666;2023-02-15T12:22:32;20.83;;;10.40;;
33987;SDS011;37428;53.580;-1.666;2023-02-15T12:25:39;19.13;;;11.05;;
33987;SDS011;37428;53.580;-1.666;2023-02-15T12:28:44;21.60;;;11.02;;
33987;SDS011;37428;53.580;-1.666;2023-02-15T12:31:52;23.10;;;12.15;;
33987;SDS011;37428;53.580;-1.666;2023-02-15T12:34:55;19.67;;;11.88;;
33987;SDS011;37428;53.580;-1.666;2023-02-15T12:38:03;25.65;;;12.10;;
33987;SDS011;37428;53.580;-1.666;2023-02-15T12:41:23;16.65;;;11.43;;
33987;SDS011;37428;53.580;-1.666;2023-02-15T12:44:27;21.65;;;13.98;;
33987;SDS011;37428;53.580;-1.666;2023-02-15T12:47:31;18.70;;;11.95;;
33987;SDS011;37428;53.580;-1.666;2023-02-15T12:50:33;20.40;;;13.15;;
33987;SDS011;37428;53.580;-1.666;2023-02-15T12:53:35;22.13;;;11.68;;
33987;SDS011;37428;53.580;-1.666;2023-02-15T12:56:40;17.80;;;10.45;;
33987;SDS011;37428;53.580;-1.666;2023-02-15T12:59:51;27.15;;;13.88;;
33987;SDS011;37428;53.580;-1.666;2023-02-15T13:02:55;21.83;;;13.43;;
33987;SDS011;37428;53.580;-1.666;2023-02-15T13:05:58;18.92;;;12.43;;
33987;SDS011;37428;53.580;-1.666;2023-02-15T13:09:11;17.67;;;14.35;;
33987;SDS011;37428;53.580;-1.666;2023-02-15T13:12:20;21.58;;;15.88;;
33987;SDS011;37428;53.580;-1.666;2023-02-15T13:15:31;23.08;;;14.57;;
33987;SDS011;37428;53.580;-1.666;2023-02-15T13:18:37;25.48;;;15.48;;
33987;SDS011;37428;53.580;-1.666;2023-02-15T13:21:43;24.65;;;16.30;;
33987;SDS011;37428;53.580;-1.666;2023-02-15T13:24:48;21.65;;;15.25;;
33987;SDS011;37428;53.580;-1.666;2023-02-15T13:27:54;26.55;;;16.75;;
33987;SDS011;37428;53.580;-1.666;2023-02-15T13:30:59;23.45;;;17.42;;
33987;SDS011;37428;53.580;-1.666;2023-02-15T13:34:03;12.40;;;11.20;;
33987;SDS011;37428;53.580;-1.666;2023-02-15T13:37:15;26.92;;;18.50;;
33987;SDS011;37428;53.580;-1.666;2023-02-15T13:40:22;21.23;;;17.15;;
33987;SDS011;37428;53.580;-1.666;2023-02-15T13:43:35;22.23;;;18.05;;
33987;SDS011;37428;53.580;-1.666;2023-02-15T13:46:51;22.98;;;17.13;;
33987;SDS011;37428;53.580;-1.666;2023-02-15T13:50:14;22.77;;;18.00;;
33987;SDS011;37428;53.580;-1.666;2023-02-15T13:53:37;30.50;;;17.70;;
33987;SDS011;37428;53.580;-1.666;2023-02-15T13:57:05;34.88;;;21.13;;
33987;SDS011;37428;53.580;-1.666;2023-02-15T14:00:28;28.25;;;19.95;;
33987;SDS011;37428;53.580;-1.666;2023-02-15T14:03:44;25.60;;;19.45;;
33987;SDS011;37428;53.580;-1.666;2023-02-15T14:10:52;33.45;;;18.33;;
33987;SDS011;37428;53.580;-1.666;2023-02-15T14:17:48;29.27;;;20.40;;
33987;SDS011;37428;53.580;-1.666;2023-02-15T14:21:00;29.38;;;20.38;;
33987;SDS011;37428;53.580;-1.666;2023-02-15T14:24:13;34.38;;;20.60;;
33987;SDS011;37428;53.580;-1.666;2023-02-15T14:27:23;31.10;;;20.92;;
33987;SDS011;37428;53.580;-1.666;2023-02-15T14:30:37;31.80;;;20.65;;
33987;SDS011;37428;53.580;-1.666;2023-02-15T14:33:43;32.05;;;21.92;;
33987;SDS011;37428;53.580;-1.666;2023-02-15T14:36:54;25.23;;;19.33;;
33987;SDS011;37428;53.580;-1.666;2023-02-15T14:39:59;27.17;;;18.75;;
33987;SDS011;37428;53.580;-1.666;2023-02-15T14:43:26;34.22;;;23.48;;
33987;SDS011;37428;53.580;-1.666;2023-02-15T14:46:34;29.35;;;21.73;;
33987;SDS011;37428;53.580;-1.666;2023-02-15T14:49:45;33.47;;;20.95;;
33987;SDS011;37428;53.580;-1.666;2023-02-15T14:56:26;32.47;;;23.42;;
33987;SDS011;37428;53.580;-1.666;2023-02-15T14:59:35;27.10;;;22.77;;
33987;SDS011;37428;53.580;-1.666;2023-02-15T15:02:43;32.63;;;21.27;;
33987;SDS011;37428;53.580;-1.666;2023-02-15T15:05:50;32.42;;;20.38;;
33987;SDS011;37428;53.580;-1.666;2023-02-15T15:08:55;32.15;;;23.30;;
33987;SDS011;37428;53.580;-1.666;2023-02-15T15:12:14;34.40;;;23.40;;
33987;SDS011;37428;53.580;-1.666;2023-02-15T15:15:32;32.30;;;21.90;;
33987;SDS011;37428;53.580;-1.666;2023-02-15T15:18:47;28.30;;;20.88;;
33987;SDS011;37428;53.580;-1.666;2023-02-15T15:21:55;25.83;;;17.30;;
33987;SDS011;37428;53.580;-1.666;2023-02-15T15:25:04;23.90;;;15.85;;
33987;SDS011;37428;53.580;-1.666;2023-02-15T15:31:43;16.45;;;13.57;;
33987;SDS011;37428;53.580;-1.666;2023-02-15T15:34:57;16.17;;;12.27;;
33987;SDS011;37428;53.580;-1.666;2023-02-15T15:38:22;12.77;;;10.52;;
33987;SDS011;37428;53.580;-1.666;2023-02-15T15:41:39;9.60;;;8.55;;
33987;SDS011;37428;53.580;-1.666;2023-02-15T15:48:28;7.93;;;6.72;;
33987;SDS011;37428;53.580;-1.666;2023-02-15T15:51:33;9.52;;;7.57;;
33987;SDS011;37428;53.580;-1.666;2023-02-15T15:54:38;8.18;;;7.07;;
33987;SDS011;37428;53.580;-1.666;2023-02-15T15:57:43;9.98;;;6.93;;
33987;SDS011;37428;53.580;-1.666;2023-02-15T16:00:49;8.65;;;7.47;;
33987;SDS011;37428;53.580;-1.666;2023-02-15T16:03:57;7.88;;;6.80;;
33987;SDS011;37428;53.580;-1.666;2023-02-15T16:07:13;8.88;;;6.50;;
33987;SDS011;37428;53.580;-1.666;2023-02-15T16:10:24;9.95;;;7.68;;
33987;SDS011;37428;53.580;-1.666;2023-02-15T16:13:28;11.75;;;8.45;;
33987;SDS011;37428;53.580;-1.666;2023-02-15T16:16:30;12.55;;;8.63;;
33987;SDS011;37428;53.580;-1.666;2023-02-15T16:19:33;10.27;;;8.60;;
33987;SDS011;37428;53.580;-1.666;2023-02-15T16:22:37;10.07;;;7.85;;
33987;SDS011;37428;53.580;-1.666;2023-02-15T16:28:48;7.20;;;5.88;;
33987;SDS011;37428;53.580;-1.666;2023-02-15T16:31:57;8.35;;;5.82;;
33987;SDS011;37428;53.580;-1.666;2023-02-15T16:35:01;9.02;;;6.10;;
33987;SDS011;37428;53.580;-1.666;2023-02-15T16:38:04;7.18;;;5.75;;
33987;SDS011;37428;53.580;-1.666;2023-02-15T16:41:12;8.50;;;6.43;;
33987;SDS011;37428;53.580;-1.666;2023-02-15T16:44:17;9.90;;;6.00;;
33987;SDS011;37428;53.580;-1.666;2023-02-15T16:47:21;6.72;;;4.95;;
33987;SDS011;37428;53.580;-1.666;2023-02-15T16:50:28;8.43;;;5.35;;
33987;SDS011;37428;53.580;-1.666;2023-02-15T16:53:33;7.70;;;5.72;;
33987;SDS011;37428;53.580;-1.666;2023-02-15T16:56:36;8.20;;;5.82;;
33987;SDS011;37428;53.580;-1.666;2023-02-15T16:59:45;6.85;;;5.60;;
33987;SDS011;37428;53.580;-1.666;2023-02-15T17:02:53;6.75;;;6.05;;
33987;SDS011;37428;53.580;-1.666;2023-02-15T17:06:00;10.90;;;5.93;;
33987;SDS011;37428;53.580;-1.666;2023-02-15T17:09:04;7.95;;;6.90;;
33987;SDS011;37428;53.580;-1.666;2023-02-15T17:12:21;10.02;;;7.38;;
33987;SDS011;37428;53.580;-1.666;2023-02-15T17:19:24;9.02;;;7.13;;
33987;SDS011;37428;53.580;-1.666;2023-02-15T17:22:28;11.43;;;6.80;;
33987;SDS011;37428;53.580;-1.666;2023-02-15T17:28:40;9.82;;;7.75;;
33987;SDS011;37428;53.580;-1.666;2023-02-15T17:31:48;9.82;;;8.38;;
33987;SDS011;37428;53.580;-1.666;2023-02-15T17:35:08;10.38;;;9.02;;
33987;SDS011;37428;53.580;-1.666;2023-02-15T17:38:25;14.63;;;8.95;;
33987;SDS011;37428;53.580;-1.666;2023-02-15T17:41:28;10.13;;;9.02;;
33987;SDS011;37428;53.580;-1.666;2023-02-15T17:44:35;13.77;;;11.25;;
33987;SDS011;37428;53.580;-1.666;2023-02-15T17:47:37;17.33;;;12.52;;
33987;SDS011;37428;53.580;-1.666;2023-02-15T17:53:42;19.63;;;14.48;;
33987;SDS011;37428;53.580;-1.666;2023-02-15T17:57:07;18.00;;;13.80;;
33987;SDS011;37428;53.580;-1.666;2023-02-15T18:10:20;20.00;;;14.52;;
33987;SDS011;37428;53.580;-1.666;2023-02-15T18:13:40;20.75;;;14.85;;
33987;SDS011;37428;53.580;-1.666;2023-02-15T18:16:43;17.25;;;13.45;;
33987;SDS011;37428;53.580;-1.666;2023-02-15T18:19:46;17.65;;;13.35;;
33987;SDS011;37428;53.580;-1.666;2023-02-15T18:22:48;14.98;;;11.35;;
33987;SDS011;37428;53.580;-1.666;2023-02-15T18:25:53;13.70;;;10.13;;
33987;SDS011;37428;53.580;-1.666;2023-02-15T18:28:55;16.95;;;10.98;;
33987;SDS011;37428;53.580;-1.666;2023-02-15T18:31:59;15.18;;;10.88;;
33987;SDS011;37428;53.580;-1.666;2023-02-15T18:35:02;15.18;;;11.60;;
33987;SDS011;37428;53.580;-1.666;2023-02-15T18:38:07;12.43;;;10.85;;
33987;SDS011;37428;53.580;-1.666;2023-02-15T18:41:14;15.38;;;10.82;;
33987;SDS011;37428;53.580;-1.666;2023-02-15T18:44:18;16.33;;;10.68;;
33987;SDS011;37428;53.580;-1.666;2023-02-15T18:47:22;17.15;;;10.52;;
33987;SDS011;37428;53.580;-1.666;2023-02-15T18:50:25;13.80;;;9.38;;
33987;SDS011;37428;53.580;-1.666;2023-02-15T18:53:30;9.20;;;7.30;;
33987;SDS011;37428;53.580;-1.666;2023-02-15T18:56:32;11.73;;;7.05;;
33987;SDS011;37428;53.580;-1.666;2023-02-15T18:59:34;10.60;;;6.95;;
33987;SDS011;37428;53.580;-1.666;2023-02-15T19:02:38;8.55;;;6.28;;
33987;SDS011;37428;53.580;-1.666;2023-02-15T19:05:41;8.73;;;6.00;;
33987;SDS011;37428;53.580;-1.666;2023-02-15T19:08:46;9.50;;;6.20;;
33987;SDS011;37428;53.580;-1.666;2023-02-15T19:11:50;14.35;;;8.52;;
33987;SDS011;37428;53.580;-1.666;2023-02-15T19:14:54;9.48;;;7.10;;